シャージャラル国際空港(ダッカ)の過去48時間の天気

シャージャラル国際空港(ダッカ) (Kurmitola, Dia)

現在時刻: 10/23 10:52 +06 (10/23 04:52 UTC) 以下の時間は現地時間です。

過去48時間のMETAR気象情報
時間 風向 風速(m/s) 視程 気温(℃) 湿度(%) 気圧(hPa) 天気現象
23 10:30 北西 3 4000m 31 62 1014 煙霧
23 10:00 西北西 4 4000m 31 62 1014 煙霧
23 09:30 北西 3 4000m 30 66 1014 煙霧
23 09:00 北北東 2 3500m 29 70 1014 煙霧
23 08:30 静穏 0 3500m 28 74 1014 煙霧
23 08:00 静穏 0 3200m 27 74 1013 煙霧
23 07:30 静穏 0 3200m 26 79 1013 煙霧
23 07:00 静穏 0 3200m 25 83 1013 煙霧
23 06:30 静穏 0 3200m 24 83 1012 煙霧
23 06:00 静穏 0 3200m 24 83 1012 煙霧
23 05:30 静穏 0 3200m 24 83 1011 煙霧
23 05:00 静穏 0 3200m 25 83 1011 煙霧
23 04:30 2 3200m 25 78 1011 煙霧
23 04:00 2 3200m 25 78 1011 煙霧
23 03:30 静穏 0 3200m 26 79 1010 煙霧
23 03:00 静穏 0 3200m 26 79 1010 煙霧
23 02:30 静穏 0 3200m 26 79 1010 煙霧
23 02:00 静穏 0 3500m 26 79 1011 煙霧
23 01:30 静穏 0 3500m 26 79 1011 煙霧
VGHS 230430Z 32005KT 4000 HZ NSC 31/23 Q1014 NOSIG
VGHS 230400Z 29007KT 4000 HZ NSC 31/23 Q1014 NOSIG
VGHS 230330Z 31005KT 4000 HZ NSC 30/23 Q1014 NOSIG
VGHS 230300Z 03003KT 3500 HZ NSC 29/23 Q1014 NOSIG
VGHS 230230Z 00000KT 3500 HZ NSC 28/23 Q1014 NOSIG
VGHS 230200Z 00000KT 3200 HZ NSC 27/22 Q1013 NOSIG
VGHS 230130Z 00000KT 3200 HZ NSC 26/22 Q1013 NOSIG
VGHS 230100Z 00000KT 3200 HZ NSC 25/22 Q1013 NOSIG
VGHS 230030Z 00000KT 3200 HZ NSC 24/21 Q1012 TEMPO S/VIS 2500M
VGHS 230000Z 00000KT 3200 HZ NSC 24/21 Q1012 TEMPO S/VIS 2500M
VGHS 222330Z 00000KT 3200 HZ NSC 24/21 Q1011 TEMPO S/VIS 2500M
VGHS 222300Z 00000KT 3200 HZ NSC 25/22 Q1011 TEMPO S/VIS 2500M
VGHS 222230Z 01004KT 3200 HZ NSC 25/21 Q1011 NOSIG
VGHS 222200Z 35004KT 3200 HZ NSC 25/21 Q1011 NOSIG
VGHS 222130Z 00000KT 3200 HZ NSC 26/22 Q1010 TEMPO S/VIS 3000M
VGHS 222100Z 00000KT 3200 HZ NSC 26/22 Q1010 TEMPO S/VIS 3000M
VGHS 222030Z 00000KT 3200 HZ NSC 26/22 Q1010 TEMPO S/VIS 3000M
VGHS 222000Z 00000KT 3500 HZ NSC 26/22 Q1011 NOSIG
VGHS 221930Z 00000KT 3500 HZ NSC 26/22 Q1011 NOSIG